Time;durP1;ratioP1;P1;durP2;ratioP2;P2;SDS_P1;SDS_P2;PMS_P1;PMS_P2;Temp;Humidity;BMP_temperature;BMP_pressure;BME280_temperature;BME280_humidity;BME280_pressure;Samples;Min_cycle;Max_cycle;Signal;HPM_P1;HPM_P2
2021/10/06 00:01:38;;;;;;;1.95;1.73;;;11.90;99.90;;;;;;4935376;29;20038;-82
2021/10/06 00:04:04;;;;;;;2.50;1.77;;;11.90;99.90;;;;;;4934425;29;20020;-85
2021/10/06 00:06:29;;;;;;;7.32;2.28;;;11.90;99.90;;;;;;4934618;29;20127;-81
2021/10/06 00:08:55;;;;;;;3.78;2.72;;;11.90;99.90;;;;;;4933721;29;20063;-80
2021/10/06 00:11:20;;;;;;;3.45;2.60;;;11.90;99.90;;;;;;4934158;29;20122;-79
2021/10/06 00:13:46;;;;;;;4.25;2.58;;;11.90;99.90;;;;;;4933655;29;20063;-80
2021/10/06 00:16:12;;;;;;;3.45;2.60;;;11.90;99.90;;;;;;4934547;29;20495;-82
2021/10/06 00:18:39;;;;;;;5.10;2.55;;;11.90;99.90;;;;;;4933226;29;20027;-80
2021/10/06 00:21:05;;;;;;;6.03;3.22;;;11.80;99.90;;;;;;4934580;29;20024;-81
2021/10/06 00:23:34;;;;;;;5.57;3.03;;;11.80;99.90;;;;;;4933932;29;20377;-80
2021/10/06 00:26:00;;;;;;;5.07;3.10;;;11.70;99.90;;;;;;4933777;29;20090;-82
2021/10/06 00:28:27;;;;;;;4.43;3.00;;;11.70;99.90;;;;;;4934981;29;20491;-81
2021/10/06 00:30:53;;;;;;;7.57;3.47;;;11.70;99.90;;;;;;4934146;29;20046;-82
2021/10/06 00:33:20;;;;;;;4.70;3.20;;;11.70;99.90;;;;;;4933649;29;20027;-82
2021/10/06 00:35:45;;;;;;;6.07;3.08;;;11.60;99.90;;;;;;4933807;29;20030;-79
2021/10/06 00:38:11;;;;;;;4.22;2.60;;;11.60;99.90;;;;;;4934039;29;20028;-80
2021/10/06 00:40:36;;;;;;;5.93;2.67;;;11.60;99.90;;;;;;4932927;29;20465;-80
2021/10/06 00:43:02;;;;;;;3.72;2.38;;;11.60;99.90;;;;;;4934249;29;20032;-80
2021/10/06 00:45:28;;;;;;;5.18;2.30;;;11.60;99.90;;;;;;4933983;29;20358;-80
2021/10/06 00:47:53;;;;;;;6.55;2.47;;;11.70;99.90;;;;;;4933752;29;20027;-79
2021/10/06 00:50:19;;;;;;;6.80;2.45;;;11.70;99.90;;;;;;4933914;29;20023;-80
2021/10/06 00:52:46;;;;;;;9.45;3.25;;;11.70;99.90;;;;;;4933661;29;20074;-82
2021/10/06 00:55:13;;;;;;;7.43;3.17;;;11.70;99.90;;;;;;4933294;29;20024;-80
2021/10/06 00:57:39;;;;;;;3.78;2.08;;;11.70;99.90;;;;;;4933760;29;20241;-80
2021/10/06 01:00:05;;;;;;;3.95;2.30;;;11.70;99.90;;;;;;4933912;29;20122;-81
2021/10/06 01:02:34;;;;;;;7.80;2.28;;;11.70;99.90;;;;;;4933042;29;20020;-79
2021/10/06 01:04:59;;;;;;;6.65;2.13;;;11.80;99.90;;;;;;4935217;29;20038;-80
2021/10/06 01:07:26;;;;;;;3.90;2.05;;;11.80;99.90;;;;;;4933577;29;20461;-80
2021/10/06 01:09:52;;;;;;;6.15;2.10;;;11.80;99.90;;;;;;4933174;29;20019;-81
2021/10/06 01:12:19;;;;;;;5.05;2.20;;;11.80;99.90;;;;;;4933594;29;20425;-79
2021/10/06 01:14:45;;;;;;;3.28;1.90;;;11.90;99.90;;;;;;4934796;29;20127;-80
2021/10/06 01:17:11;;;;;;;4.53;1.73;;;11.90;99.90;;;;;;4932799;29;20038;-81
2021/10/06 01:19:36;;;;;;;6.78;1.98;;;11.90;99.90;;;;;;4933406;29;20032;-81
2021/10/06 01:22:02;;;;;;;5.28;2.15;;;11.80;99.90;;;;;;4935029;29;20032;-81
2021/10/06 01:24:29;;;;;;;6.13;2.13;;;11.90;99.90;;;;;;4936984;29;20464;-79
2021/10/06 01:26:55;;;;;;;6.22;2.00;;;11.80;99.90;;;;;;4937283;29;20096;-80
2021/10/06 01:29:21;;;;;;;6.63;2.53;;;11.80;99.90;;;;;;4936631;29;20048;-80
2021/10/06 01:31:48;;;;;;;5.25;2.00;;;11.80;99.90;;;;;;4936454;29;20055;-79
2021/10/06 01:34:15;;;;;;;5.47;2.13;;;11.80;99.90;;;;;;4937261;29;20460;-79
2021/10/06 01:36:41;;;;;;;5.10;2.13;;;11.90;99.90;;;;;;4936185;29;20035;-80
2021/10/06 01:39:08;;;;;;;7.10;1.85;;;11.90;99.90;;;;;;4936943;29;20016;-79
2021/10/06 01:41:35;;;;;;;4.82;2.13;;;11.90;99.90;;;;;;4937918;29;20059;-78
2021/10/06 01:44:02;;;;;;;7.05;2.22;;;11.90;99.90;;;;;;4936272;29;20475;-80
2021/10/06 01:46:27;;;;;;;4.90;2.08;;;11.90;99.90;;;;;;4936873;29;20027;-80
2021/10/06 01:48:53;;;;;;;9.07;2.40;;;12.00;99.90;;;;;;4936832;29;20469;-81
2021/10/06 01:51:19;;;;;;;6.63;2.13;;;12.00;99.90;;;;;;4936326;29;20050;-80
2021/10/06 01:53:44;;;;;;;4.30;1.83;;;12.00;99.90;;;;;;4936494;29;20031;-81
2021/10/06 01:56:10;;;;;;;18.73;2.60;;;12.00;99.90;;;;;;4937936;29;20024;-81
2021/10/06 01:58:36;;;;;;;5.63;1.90;;;11.90;99.90;;;;;;4935721;29;20507;-79
2021/10/06 02:01:03;;;;;;;5.28;1.70;;;12.00;99.90;;;;;;4937948;29;20389;-80
2021/10/06 02:03:29;;;;;;;4.28;2.05;;;12.00;99.90;;;;;;4936329;29;20679;-80
2021/10/06 02:05:55;;;;;;;5.47;1.65;;;12.00;99.90;;;;;;4937257;29;20148;-80
2021/10/06 02:08:21;;;;;;;3.75;1.58;;;12.00;99.90;;;;;;4936670;29;20079;-80
2021/10/06 02:10:47;;;;;;;4.10;1.52;;;12.00;99.90;;;;;;4936211;29;20043;-80
2021/10/06 02:13:13;;;;;;;3.58;1.60;;;12.00;99.90;;;;;;4935622;29;20024;-80
2021/10/06 02:15:39;;;;;;;4.75;2.10;;;12.00;99.90;;;;;;4937418;29;20028;-80
2021/10/06 02:18:05;;;;;;;6.45;1.73;;;12.00;99.90;;;;;;4936515;29;20031;-80
2021/10/06 02:20:31;;;;;;;3.90;1.80;;;12.00;99.90;;;;;;4935263;29;20384;-80
2021/10/06 02:22:57;;;;;;;4.03;1.70;;;12.00;99.90;;;;;;4936299;29;20020;-80
2021/10/06 02:25:22;;;;;;;5.57;2.10;;;11.90;99.90;;;;;;4935535;29;20094;-79
2021/10/06 02:27:48;;;;;;;6.90;1.80;;;11.90;99.90;;;;;;4935632;29;20115;-80
2021/10/06 02:30:15;;;;;;;5.00;1.67;;;11.90;99.90;;;;;;4936122;29;20058;-80
2021/10/06 02:32:41;;;;;;;10.57;2.05;;;11.90;99.90;;;;;;4934643;29;20056;-79
2021/10/06 02:35:08;;;;;;;6.95;2.22;;;11.90;99.90;;;;;;4936185;29;20020;-80
2021/10/06 02:37:34;;;;;;;6.70;1.65;;;11.90;99.90;;;;;;4936619;29;20039;-79
2021/10/06 02:39:59;;;;;;;6.90;2.22;;;11.90;99.90;;;;;;4935172;29;20038;-81
2021/10/06 02:42:25;;;;;;;4.95;2.10;;;11.90;99.90;;;;;;4935447;29;20473;-79
2021/10/06 02:44:50;;;;;;;10.02;1.80;;;11.90;99.90;;;;;;4935612;29;20028;-79
2021/10/06 02:47:16;;;;;;;4.07;1.67;;;11.90;99.90;;;;;;4935505;29;20059;-79
2021/10/06 02:49:42;;;;;;;5.07;1.80;;;11.90;99.90;;;;;;4935325;29;20039;-79
2021/10/06 02:52:07;;;;;;;5.93;2.45;;;11.90;99.90;;;;;;4935601;29;20059;-80
2021/10/06 02:54:33;;;;;;;5.65;2.03;;;11.80;99.90;;;;;;4934768;29;20047;-80
2021/10/06 02:57:01;;;;;;;5.63;1.92;;;11.80;99.90;;;;;;4935679;29;20031;-81
2021/10/06 02:59:34;;;;;;;6.63;2.00;;;11.80;99.90;;;;;;4931203;29;20081;-80
2021/10/06 03:01:59;;;;;;;5.22;2.00;;;11.80;99.90;;;;;;4916305;29;20052;-79
2021/10/06 03:04:25;;;;;;;5.88;2.47;;;11.70;99.90;;;;;;4935002;29;20016;-81
2021/10/06 03:06:51;;;;;;;4.50;1.90;;;11.70;99.90;;;;;;4936824;29;20027;-80
2021/10/06 03:09:16;;;;;;;5.80;2.20;;;11.70;99.90;;;;;;4934588;29;20024;-81
2021/10/06 03:11:42;;;;;;;4.25;1.88;;;11.70;99.90;;;;;;4934855;29;20047;-81
2021/10/06 03:14:08;;;;;;;4.90;2.00;;;11.80;99.90;;;;;;4936384;29;20031;-81
2021/10/06 03:16:34;;;;;;;8.45;2.60;;;11.80;99.90;;;;;;4933313;29;20066;-82
2021/10/06 03:19:00;;;;;;;4.10;2.08;;;11.80;99.90;;;;;;4935303;29;20043;-81
2021/10/06 03:21:25;;;;;;;4.97;1.80;;;11.90;99.90;;;;;;4935184;29;20385;-80
2021/10/06 03:23:51;;;;;;;5.03;2.03;;;11.90;99.90;;;;;;4933641;29;20473;-78
2021/10/06 03:26:16;;;;;;;4.88;2.15;;;11.90;99.90;;;;;;4934448;29;20433;-81
2021/10/06 03:28:42;;;;;;;5.43;2.00;;;11.90;99.90;;;;;;4933162;29;20024;-82
2021/10/06 03:31:08;;;;;;;6.75;2.85;;;11.80;99.90;;;;;;4934785;29;20071;-83
2021/10/06 03:33:33;;;;;;;5.28;2.15;;;11.80;99.90;;;;;;4932859;29;20477;-80
2021/10/06 03:35:59;;;;;;;4.28;1.90;;;11.80;99.90;;;;;;4933475;29;20039;-81
2021/10/06 03:38:24;;;;;;;4.30;1.67;;;11.80;99.90;;;;;;4934328;29;20492;-81
2021/10/06 03:40:50;;;;;;;4.38;2.08;;;11.80;99.90;;;;;;4934593;29;20035;-82
2021/10/06 03:43:16;;;;;;;6.43;2.10;;;11.80;99.90;;;;;;4933371;29;20062;-80
2021/10/06 03:45:42;;;;;;;9.27;2.58;;;11.80;99.90;;;;;;4933743;29;20024;-80
2021/10/06 03:48:07;;;;;;;5.40;2.40;;;11.80;99.90;;;;;;4934806;29;20039;-81
2021/10/06 03:50:33;;;;;;;6.05;2.15;;;11.80;99.90;;;;;;4933989;29;20031;-80
2021/10/06 03:53:00;;;;;;;8.50;2.33;;;11.80;99.90;;;;;;4934135;29;20563;-80
2021/10/06 03:55:25;;;;;;;7.88;2.20;;;11.80;99.90;;;;;;4932859;29;20131;-80
2021/10/06 03:57:51;;;;;;;4.65;2.13;;;11.70;99.90;;;;;;4933540;29;20115;-80
2021/10/06 04:00:17;;;;;;;5.38;2.00;;;11.70;99.90;;;;;;4934369;29;20024;-81
2021/10/06 04:02:42;;;;;;;4.10;1.90;;;11.70;99.90;;;;;;4930975;29;20038;-81
2021/10/06 04:05:09;;;;;;;6.82;2.05;;;11.70;99.90;;;;;;4932541;29;20027;-79
2021/10/06 04:07:35;;;;;;;3.78;1.98;;;11.70;99.90;;;;;;4916535;29;20027;-79
2021/10/06 04:10:00;;;;;;;3.05;2.00;;;11.70;99.90;;;;;;4920142;29;20384;-81
2021/10/06 04:12:26;;;;;;;5.90;1.88;;;11.70;99.90;;;;;;4933256;29;20032;-81
2021/10/06 04:14:52;;;;;;;3.83;1.75;;;11.70;99.90;;;;;;4934257;29;20029;-80
2021/10/06 04:17:17;;;;;;;3.03;1.70;;;11.70;99.90;;;;;;4934345;29;20490;-81
2021/10/06 04:19:43;;;;;;;5.53;2.47;;;11.70;99.90;;;;;;4933246;29;20087;-81
2021/10/06 04:22:09;;;;;;;4.85;1.70;;;11.60;99.90;;;;;;4934020;29;20396;-81
2021/10/06 04:24:34;;;;;;;3.80;1.40;;;11.60;99.90;;;;;;4933858;29;20071;-81
2021/10/06 04:27:00;;;;;;;3.72;1.13;;;11.60;99.90;;;;;;4934786;29;20173;-80
2021/10/06 04:29:26;;;;;;;1.30;1.00;;;11.60;99.90;;;;;;4933655;29;20436;-80
2021/10/06 04:31:52;;;;;;;2.17;1.20;;;11.60;99.90;;;;;;4933392;29;20552;-79
2021/10/06 04:34:17;;;;;;;1.90;1.27;;;11.50;99.90;;;;;;4934100;29;20016;-80
2021/10/06 04:36:43;;;;;;;1.80;1.00;;;11.50;99.90;;;;;;4933709;29;20410;-81
2021/10/06 04:39:09;;;;;;;6.03;1.23;;;11.50;99.90;;;;;;4933012;29;20027;-79
2021/10/06 04:41:34;;;;;;;1.20;1.10;;;11.40;99.90;;;;;;4933346;29;20040;-80
2021/10/06 04:44:02;;;;;;;1.73;1.15;;;11.40;99.90;;;;;;4934055;29;20027;-80
2021/10/06 04:46:28;;;;;;;3.67;1.70;;;11.40;99.90;;;;;;4932266;29;20028;-80
2021/10/06 04:48:54;;;;;;;2.35;1.60;;;11.40;99.90;;;;;;4932014;29;20027;-80
2021/10/06 04:51:19;;;;;;;4.18;1.63;;;11.30;99.90;;;;;;4934507;29;20400;-80
2021/10/06 04:53:45;;;;;;;6.32;1.80;;;11.30;99.90;;;;;;4933017;29;20071;-80
2021/10/06 04:56:10;;;;;;;3.13;1.77;;;11.30;99.90;;;;;;4935230;29;20023;-80
2021/10/06 04:58:36;;;;;;;5.63;1.73;;;11.30;99.90;;;;;;4936350;29;20469;-81
2021/10/06 05:01:02;;;;;;;3.92;2.25;;;11.30;99.90;;;;;;4935329;29;20027;-82
2021/10/06 05:03:28;;;;;;;4.50;2.10;;;11.30;99.90;;;;;;4937424;29;20035;-82
2021/10/06 05:05:53;;;;;;;4.82;2.15;;;11.30;99.90;;;;;;4937677;29;20051;-81
2021/10/06 05:08:19;;;;;;;3.20;1.90;;;11.30;99.90;;;;;;4936915;29;20036;-82
2021/10/06 05:10:44;;;;;;;2.10;1.90;;;11.40;99.90;;;;;;4936179;29;20535;-81
2021/10/06 05:13:10;;;;;;;3.38;2.03;;;11.40;99.90;;;;;;4936684;29;20028;-80
2021/10/06 05:15:36;;;;;;;5.68;2.00;;;11.40;99.90;;;;;;4938023;29;20032;-79
2021/10/06 05:18:01;;;;;;;7.70;2.20;;;11.40;99.90;;;;;;4937235;29;20023;-81
2021/10/06 05:20:27;;;;;;;5.57;2.17;;;11.40;99.90;;;;;;4937145;29;20035;-81
2021/10/06 05:22:52;;;;;;;3.97;2.65;;;11.40;99.90;;;;;;4936701;29;20051;-82
2021/10/06 05:25:20;;;;;;;4.95;2.42;;;11.40;99.90;;;;;;4937290;29;20511;-81
2021/10/06 05:27:46;;;;;;;4.95;2.17;;;11.40;99.90;;;;;;4936950;29;20362;-83
2021/10/06 05:30:12;;;;;;;3.60;2.10;;;11.40;99.90;;;;;;4936265;29;20064;-82
2021/10/06 05:32:38;;;;;;;6.18;2.10;;;11.40;99.90;;;;;;4936554;29;20051;-82
2021/10/06 05:35:04;;;;;;;3.75;1.67;;;11.40;99.90;;;;;;4937087;29;20028;-81
2021/10/06 05:37:30;;;;;;;2.80;2.00;;;11.40;99.90;;;;;;4935920;29;20036;-82
2021/10/06 05:39:55;;;;;;;4.28;2.20;;;11.50;99.90;;;;;;4938213;29;20031;-82
2021/10/06 05:42:21;;;;;;;6.65;2.20;;;11.40;99.90;;;;;;4936423;29;20028;-84
2021/10/06 05:44:48;;;;;;;6.35;2.40;;;11.50;99.90;;;;;;4936675;29;20023;-82
2021/10/06 05:47:13;;;;;;;7.63;2.90;;;11.40;99.90;;;;;;4936759;29;20468;-81
2021/10/06 05:49:39;;;;;;;4.97;2.47;;;11.40;99.90;;;;;;4937350;29;20039;-80
2021/10/06 05:52:05;;;;;;;3.63;1.83;;;11.50;99.90;;;;;;4936908;29;20122;-82
2021/10/06 05:54:31;;;;;;;4.93;2.10;;;11.40;99.90;;;;;;4936675;29;20547;-82
2021/10/06 05:56:56;;;;;;;4.72;2.08;;;11.40;99.90;;;;;;4935434;28;20031;-80
2021/10/06 05:59:22;;;;;;;4.28;2.08;;;11.40;99.90;;;;;;4933116;29;20023;-83
2021/10/06 06:01:48;;;;;;;5.00;2.20;;;11.50;99.90;;;;;;4932285;29;20032;-79
2021/10/06 06:04:17;;;;;;;3.55;2.10;;;11.50;99.90;;;;;;4952186;29;20042;-80
2021/10/06 06:06:45;;;;;;;3.10;2.10;;;11.50;99.90;;;;;;4932883;29;20031;-91
2021/10/06 06:09:14;;;;;;;4.18;1.80;;;11.50;99.90;;;;;;4936762;29;20028;-88
2021/10/06 06:11:39;;;;;;;4.45;2.42;;;11.50;99.90;;;;;;4936197;29;20079;-90
2021/10/06 06:14:06;;;;;;;6.53;2.10;;;11.50;99.90;;;;;;4937170;29;20031;-90
2021/10/06 06:16:32;;;;;;;5.90;2.25;;;11.50;99.90;;;;;;4940313;29;20035;-92
2021/10/06 06:18:58;;;;;;;5.65;2.47;;;11.50;99.90;;;;;;4944377;29;20020;-82
2021/10/06 06:21:24;;;;;;;3.63;2.13;;;11.50;99.90;;;;;;4937732;29;20051;-81
2021/10/06 06:23:49;;;;;;;5.63;2.40;;;11.50;99.90;;;;;;4935938;29;20071;-84
2021/10/06 06:26:15;;;;;;;4.47;2.20;;;11.50;99.90;;;;;;4935339;29;20455;-87
2021/10/06 06:28:42;;;;;;;4.20;2.40;;;11.40;99.90;;;;;;4936640;29;20059;-83
2021/10/06 06:31:08;;;;;;;9.10;3.53;;;11.40;99.90;;;;;;4936191;29;20123;-86
2021/10/06 06:33:34;;;;;;;4.05;2.00;;;11.50;99.90;;;;;;4935047;29;20028;-82
2021/10/06 06:35:59;;;;;;;5.13;2.35;;;11.40;99.90;;;;;;4936826;29;20115;-85
2021/10/06 06:38:27;;;;;;;3.65;1.63;;;11.50;99.90;;;;;;4935200;29;20525;-83
2021/10/06 06:40:52;;;;;;;5.70;2.28;;;11.50;99.90;;;;;;4936115;29;20078;-84
2021/10/06 06:43:18;;;;;;;4.95;2.20;;;11.50;99.90;;;;;;4933867;29;20418;-80
2021/10/06 06:45:44;;;;;;;3.60;1.90;;;11.60;99.90;;;;;;4936254;29;20044;-83
2021/10/06 06:48:10;;;;;;;4.55;2.35;;;11.50;99.90;;;;;;4936534;29;20036;-82
2021/10/06 06:50:36;;;;;;;3.35;1.98;;;11.60;99.90;;;;;;4936820;29;20036;-82
2021/10/06 06:53:21;;;;;;;7.47;2.17;;;11.50;99.90;;;;;;4936288;29;20023;-89
2021/10/06 06:55:47;;;;;;;3.35;1.88;;;11.50;99.90;;;;;;4945926;29;20032;-82
2021/10/06 06:58:16;;;;;;;4.28;2.20;;;11.50;99.90;;;;;;4947068;28;20094;-82
2021/10/06 07:00:41;;;;;;;5.32;2.03;;;11.50;99.90;;;;;;4934676;29;20035;-85
2021/10/06 07:03:07;;;;;;;6.15;2.50;;;11.50;99.90;;;;;;4935296;29;20532;-84
2021/10/06 07:05:32;;;;;;;4.88;2.22;;;11.50;99.90;;;;;;4933956;29;20031;-84
2021/10/06 07:07:58;;;;;;;3.25;2.33;;;11.50;99.90;;;;;;4934184;29;20035;-83
2021/10/06 07:10:24;;;;;;;4.03;2.00;;;11.50;99.90;;;;;;4934731;29;20038;-85
2021/10/06 07:12:49;;;;;;;4.45;2.05;;;11.50;99.90;;;;;;4935253;29;20028;-82
2021/10/06 07:15:16;;;;;;;3.50;2.00;;;11.50;99.90;;;;;;4935722;29;20523;-84
2021/10/06 07:17:41;;;;;;;3.88;2.00;;;11.50;99.90;;;;;;4935026;29;20059;-86
2021/10/06 07:20:08;;;;;;;4.10;2.35;;;11.50;99.90;;;;;;4933150;29;20113;-88
2021/10/06 07:22:33;;;;;;;2.97;1.90;;;11.50;99.90;;;;;;4932451;29;20686;-80
2021/10/06 07:25:00;;;;;;;3.47;2.00;;;11.50;99.90;;;;;;4931993;29;20126;-79
2021/10/06 07:27:26;;;;;;;3.63;2.03;;;11.60;99.90;;;;;;4931730;29;20417;-79
2021/10/06 07:29:51;;;;;;;4.35;1.98;;;11.60;99.90;;;;;;4930919;29;20038;-81
2021/10/06 07:32:17;;;;;;;1.90;1.70;;;11.70;99.90;;;;;;4931238;29;20055;-79
2021/10/06 07:34:43;;;;;;;3.58;2.30;;;11.70;99.90;;;;;;4929908;29;20388;-78
2021/10/06 07:37:08;;;;;;;3.83;2.22;;;11.80;99.90;;;;;;4930001;29;20035;-77
2021/10/06 07:39:34;;;;;;;5.35;1.98;;;11.90;99.90;;;;;;4932109;29;20026;-77
2021/10/06 07:41:59;;;;;;;4.03;1.98;;;11.80;99.90;;;;;;4930622;29;20040;-81
2021/10/06 07:44:25;;;;;;;3.25;1.70;;;11.80;99.90;;;;;;4930751;29;20123;-78
2021/10/06 07:46:51;;;;;;;2.13;1.60;;;11.80;99.90;;;;;;4930060;29;20032;-78
2021/10/06 07:49:17;;;;;;;6.53;1.95;;;11.80;99.90;;;;;;4929496;29;20088;-78
2021/10/06 07:51:42;;;;;;;2.80;1.65;;;11.80;99.90;;;;;;4931017;29;20106;-77
2021/10/06 07:54:08;;;;;;;4.60;2.00;;;11.80;99.90;;;;;;4931414;29;20055;-77
2021/10/06 07:56:34;;;;;;;3.13;1.90;;;11.90;99.90;;;;;;4930049;29;20024;-78
2021/10/06 07:58:59;;;;;;;3.50;1.85;;;11.90;99.90;;;;;;4932457;29;20413;-78
2021/10/06 08:01:25;;;;;;;3.13;1.80;;;11.80;99.90;;;;;;4930546;29;20040;-77
2021/10/06 08:03:51;;;;;;;3.30;2.10;;;11.80;99.90;;;;;;4930662;29;20020;-78
2021/10/06 08:06:16;;;;;;;4.15;2.15;;;11.90;99.90;;;;;;4930786;29;20043;-80
2021/10/06 08:08:42;;;;;;;3.40;2.08;;;11.80;99.90;;;;;;4932470;29;20027;-79
2021/10/06 08:11:08;;;;;;;3.10;1.95;;;11.80;99.90;;;;;;4931621;29;20058;-78
2021/10/06 08:13:33;;;;;;;3.38;2.00;;;11.90;99.90;;;;;;4929311;29;20023;-79
2021/10/06 08:15:59;;;;;;;5.45;1.90;;;11.80;99.90;;;;;;4931190;29;20429;-78
2021/10/06 08:18:25;;;;;;;5.40;1.85;;;11.80;99.90;;;;;;4930029;29;20024;-80
2021/10/06 08:20:52;;;;;;;5.90;2.45;;;11.90;99.90;;;;;;4930250;29;20031;-79
2021/10/06 08:23:20;;;;;;;2.92;2.08;;;11.80;99.90;;;;;;4930829;29;20459;-78
2021/10/06 08:25:47;;;;;;;3.92;1.77;;;11.90;99.90;;;;;;4929826;29;20023;-79
2021/10/06 08:28:14;;;;;;;3.72;2.20;;;11.80;99.90;;;;;;4930687;29;20032;-79
2021/10/06 08:30:40;;;;;;;4.30;1.83;;;11.90;99.90;;;;;;4929959;29;20043;-79
2021/10/06 08:33:06;;;;;;;3.20;1.90;;;12.00;99.90;;;;;;4929986;29;20039;-78
2021/10/06 08:35:32;;;;;;;3.42;2.17;;;12.00;99.90;;;;;;4928766;29;20032;-77
2021/10/06 08:37:58;;;;;;;4.55;2.17;;;12.00;99.90;;;;;;4928096;29;20030;-78
2021/10/06 08:40:24;;;;;;;1.92;1.60;;;12.10;99.90;;;;;;4930247;29;20032;-77
2021/10/06 08:42:50;;;;;;;2.22;1.50;;;12.00;99.90;;;;;;4944122;29;20129;-77
2021/10/06 08:45:15;;;;;;;2.38;1.70;;;12.10;99.90;;;;;;4929088;29;20769;-77
2021/10/06 08:47:42;;;;;;;3.00;1.50;;;12.10;99.90;;;;;;4930132;29;20030;-76
2021/10/06 08:50:12;;;;;;;3.05;1.60;;;12.20;99.90;;;;;;4929092;29;20060;-77
2021/10/06 08:52:38;;;;;;;2.75;1.70;;;12.30;99.90;;;;;;4928581;29;20250;-80
2021/10/06 08:55:07;;;;;;;1.95;1.63;;;12.30;99.90;;;;;;4931591;29;20028;-77
2021/10/06 08:57:33;;;;;;;3.95;1.60;;;12.30;99.90;;;;;;4929119;29;20512;-81
2021/10/06 08:59:59;;;;;;;1.40;1.30;;;12.40;99.90;;;;;;4932415;29;20028;-79
2021/10/06 09:02:25;;;;;;;3.20;1.50;;;12.40;99.90;;;;;;4915593;29;20028;-80
2021/10/06 09:04:51;;;;;;;2.38;1.50;;;12.40;99.90;;;;;;4932454;29;20501;-83
2021/10/06 09:07:17;;;;;;;2.17;1.60;;;12.40;99.90;;;;;;4930420;29;20035;-79
2021/10/06 09:09:43;;;;;;;1.52;1.42;;;12.40;99.90;;;;;;4930232;29;20035;-81
2021/10/06 09:12:11;;;;;;;1.40;1.30;;;12.40;99.90;;;;;;4932333;29;20183;-79
2021/10/06 09:14:42;;;;;;;1.90;1.20;;;12.50;99.90;;;;;;4929990;29;20035;-87
2021/10/06 09:17:13;;;;;;;3.20;1.50;;;12.50;99.90;;;;;;4930446;29;20042;-85
2021/10/06 09:19:53;;;;;;;1.63;1.20;;;12.50;99.90;;;;;;4930880;29;20031;-80
2021/10/06 09:22:27;;;;;;;1.40;1.30;;;12.50;99.90;;;;;;4930721;29;20031;-79
2021/10/06 09:25:02;;;;;;;2.47;1.35;;;12.60;99.90;;;;;;4929637;29;20444;-83
2021/10/06 09:27:33;;;;;;;1.98;1.30;;;12.60;99.90;;;;;;4930591;29;20507;-89
2021/10/06 09:30:03;;;;;;;2.08;1.35;;;12.70;99.90;;;;;;4930805;29;20115;-80
2021/10/06 09:32:35;;;;;;;2.83;1.90;;;12.70;99.90;;;;;;4932174;29;20115;-79
2021/10/06 09:35:06;;;;;;;1.93;1.33;;;12.70;99.90;;;;;;4928766;29;20063;-76
2021/10/06 09:37:32;;;;;;;1.48;1.35;;;12.70;99.90;;;;;;4930083;29;20103;-76
2021/10/06 09:39:57;;;;;;;2.90;1.70;;;12.80;99.90;;;;;;4930424;29;20032;-80
2021/10/06 09:42:23;;;;;;;2.75;1.55;;;12.80;99.90;;;;;;4930455;29;20027;-81
2021/10/06 09:44:57;;;;;;;4.32;1.90;;;12.80;99.90;;;;;;4934170;29;20027;-79
2021/10/06 09:47:24;;;;;;;4.63;1.70;;;12.90;99.90;;;;;;4934528;29;20028;-78
2021/10/06 09:49:57;;;;;;;2.10;1.52;;;12.90;99.90;;;;;;4932836;29;20042;-78
2021/10/06 09:52:28;;;;;;;3.30;1.92;;;13.00;99.90;;;;;;4933277;29;20130;-94
2021/10/06 09:54:59;;;;;;;5.20;1.85;;;13.00;99.90;;;;;;4937413;29;20022;-79
2021/10/06 09:57:29;;;;;;;4.72;1.88;;;13.20;99.90;;;;;;4952488;29;20439;-79
2021/10/06 10:00:00;;;;;;;4.13;1.88;;;13.20;99.90;;;;;;4952877;29;20033;-84
2021/10/06 10:02:27;;;;;;;1.85;1.60;;;13.20;99.90;;;;;;4951736;29;20395;-86
2021/10/06 10:04:55;;;;;;;2.83;1.63;;;13.20;99.90;;;;;;4945214;28;20047;-78
2021/10/06 10:07:21;;;;;;;3.78;1.77;;;13.20;99.90;;;;;;4934876;29;20047;-87
2021/10/06 10:09:47;;;;;;;4.55;1.92;;;13.20;99.90;;;;;;4933001;29;20047;-79
2021/10/06 10:12:13;;;;;;;3.85;1.63;;;13.20;99.90;;;;;;4931630;29;20044;-80
2021/10/06 10:14:40;;;;;;;3.10;1.60;;;13.20;99.90;;;;;;4932086;29;20283;-79
2021/10/06 10:17:05;;;;;;;3.75;2.13;;;13.20;99.90;;;;;;4930870;29;20036;-81
2021/10/06 10:19:32;;;;;;;3.47;2.25;;;13.20;99.90;;;;;;4930230;29;20079;-80
2021/10/06 10:22:01;;;;;;;4.35;1.70;;;13.20;99.90;;;;;;4931030;29;20027;-84
2021/10/06 10:24:27;;;;;;;3.90;1.80;;;13.30;99.90;;;;;;4932829;29;20076;-81
2021/10/06 10:27:06;;;;;;;4.55;1.95;;;13.30;99.90;;;;;;4932903;29;20809;-82
2021/10/06 10:29:56;;;;;;;5.53;2.28;;;13.30;99.90;;;;;;4914574;29;20055;-79
2021/10/06 10:32:24;;;;;;;4.70;2.05;;;13.40;99.90;;;;;;4928857;29;20056;-79
2021/10/06 10:35:07;;;;;;;2.88;2.03;;;13.50;99.90;;;;;;4929656;29;20031;-82
2021/10/06 10:37:48;;;;;;;3.42;1.70;;;13.60;99.90;;;;;;4927754;29;20035;-82
2021/10/06 10:40:34;;;;;;;3.97;1.98;;;13.70;99.90;;;;;;4923990;29;20074;-80
2021/10/06 10:43:03;;;;;;;7.50;2.35;;;13.80;99.90;;;;;;4932113;29;20492;-80
2021/10/06 10:45:38;;;;;;;4.65;1.90;;;14.00;99.90;;;;;;4929844;29;20066;-80
2021/10/06 10:48:06;;;;;;;5.00;1.73;;;14.10;99.90;;;;;;4931684;29;20027;-79
2021/10/06 10:50:43;;;;;;;5.13;2.03;;;14.20;99.90;;;;;;4931487;29;20036;-83
2021/10/06 10:53:10;;;;;;;5.38;2.63;;;14.30;99.90;;;;;;4929963;29;20131;-78
2021/10/06 10:56:00;;;;;;;6.10;2.30;;;14.30;99.90;;;;;;4954282;28;20031;-81
2021/10/06 10:58:25;;;;;;;6.13;2.22;;;14.40;99.90;;;;;;4951262;29;20043;-83
2021/10/06 11:00:51;;;;;;;5.47;1.80;;;14.50;99.90;;;;;;4944909;29;20039;-80
2021/10/06 11:03:16;;;;;;;6.07;2.30;;;14.60;99.90;;;;;;4931722;29;20393;-81
2021/10/06 11:05:46;;;;;;;3.88;1.50;;;14.70;99.90;;;;;;4931569;29;20036;-79
2021/10/06 11:08:30;;;;;;;3.00;1.85;;;14.80;99.90;;;;;;4931410;29;20030;-84
2021/10/06 11:11:13;;;;;;;5.47;1.63;;;14.90;99.90;;;;;;4932225;29;20043;-80
2021/10/06 11:13:41;;;;;;;4.40;1.95;;;14.90;99.90;;;;;;4930559;29;20515;-81
2021/10/06 11:16:07;;;;;;;4.72;2.00;;;14.90;99.90;;;;;;4931208;29;20032;-82
2021/10/06 11:18:49;;;;;;;3.58;1.60;;;14.90;99.90;;;;;;4931026;29;20396;-79
2021/10/06 11:21:37;;;;;;;3.83;1.65;;;14.80;99.90;;;;;;4931150;29;20035;-79
2021/10/06 11:24:22;;;;;;;2.60;1.63;;;14.80;99.90;;;;;;4930956;29;20083;-79
2021/10/06 11:26:57;;;;;;;3.58;1.98;;;14.80;99.90;;;;;;4932149;29;20047;-79
2021/10/06 11:29:23;;;;;;;4.35;1.95;;;14.80;99.90;;;;;;4931981;29;20050;-81
2021/10/06 11:31:49;;;;;;;4.70;1.90;;;14.70;99.90;;;;;;4931638;29;20066;-78
2021/10/06 11:34:17;;;;;;;5.15;1.92;;;14.70;99.90;;;;;;4931331;29;20028;-79
2021/10/06 11:36:49;;;;;;;2.88;1.55;;;14.70;99.90;;;;;;4930723;29;20046;-78
2021/10/06 11:39:14;;;;;;;4.88;1.63;;;14.80;99.90;;;;;;4933782;29;20073;-78
2021/10/06 11:41:49;;;;;;;3.42;1.38;;;14.90;99.90;;;;;;4929958;29;20476;-79
2021/10/06 11:44:32;;;;;;;2.35;1.50;;;15.00;99.90;;;;;;4931217;29;20438;-81
2021/10/06 11:47:01;;;;;;;2.35;1.20;;;15.10;99.90;;;;;;4932920;29;20024;-81
2021/10/06 11:49:29;;;;;;;4.22;2.03;;;15.30;99.90;;;;;;4932586;29;20027;-82
2021/10/06 11:51:55;;;;;;;4.95;1.77;;;15.30;99.90;;;;;;4933199;29;20061;-80
2021/10/06 11:54:24;;;;;;;3.95;1.80;;;15.40;99.90;;;;;;4935851;29;20382;-79
2021/10/06 11:56:55;;;;;;;4.03;1.70;;;15.30;99.90;;;;;;4951991;28;20031;-81
2021/10/06 11:59:25;;;;;;;5.43;1.95;;;15.30;99.90;;;;;;4953769;29;20026;-79
2021/10/06 12:01:53;;;;;;;5.30;2.10;;;15.20;99.90;;;;;;4953834;28;20435;-81
2021/10/06 12:04:19;;;;;;;3.40;1.65;;;15.10;99.90;;;;;;4945936;29;20027;-78
2021/10/06 12:06:47;;;;;;;3.40;1.65;;;15.10;99.90;;;;;;4931302;29;20032;-78
2021/10/06 12:09:14;;;;;;;3.70;1.80;;;15.10;99.90;;;;;;4932375;29;20046;-78
2021/10/06 12:11:45;;;;;;;4.15;1.60;;;15.10;99.90;;;;;;4936126;29;20144;-81
2021/10/06 12:14:21;;;;;;;4.53;1.75;;;15.00;99.90;;;;;;4934138;29;20028;-83
2021/10/06 12:17:05;;;;;;;3.70;1.48;;;15.00;99.90;;;;;;4935052;29;20035;-81
2021/10/06 12:19:32;;;;;;;4.63;1.88;;;14.90;99.90;;;;;;4933314;29;20421;-80
2021/10/06 12:21:58;;;;;;;3.92;1.90;;;14.90;99.90;;;;;;4933373;29;20034;-87
2021/10/06 12:24:26;;;;;;;4.93;2.28;;;14.90;99.90;;;;;;4932341;29;20675;-79
2021/10/06 12:26:53;;;;;;;5.80;2.00;;;14.90;99.90;;;;;;4931404;29;20028;-79
2021/10/06 12:29:27;;;;;;;5.95;2.08;;;14.90;99.90;;;;;;4931856;29;20463;-79
2021/10/06 12:32:09;;;;;;;5.07;1.85;;;15.00;99.90;;;;;;4929600;29;20095;-77
2021/10/06 12:34:34;;;;;;;5.03;2.10;;;15.10;99.90;;;;;;4930116;29;20079;-78
2021/10/06 12:37:00;;;;;;;6.40;2.80;;;15.30;99.90;;;;;;4927922;29;20027;-77
2021/10/06 12:39:28;;;;;;;6.03;2.40;;;15.40;99.90;;;;;;4930070;29;20032;-77
2021/10/06 12:41:58;;;;;;;9.93;2.50;;;15.30;99.90;;;;;;4931669;29;20500;-78
2021/10/06 12:44:26;;;;;;;4.55;2.10;;;15.20;99.90;;;;;;4929846;29;20495;-78
2021/10/06 12:46:54;;;;;;;5.70;1.95;;;15.10;99.90;;;;;;4929494;29;20024;-77